Sill Hill (79, 626) Station Data

Red Flag Warning: Yes
Fire Weather Zone: 258
SDGE Region: Mountain Empire
Lat/Lon: 32.954/-116.643

Observations

Time Wind Speed/Gust Temp(F) RH Fuel Moist Fuel Temp(F) Dewpt(F) Tmax(F) Tmin(F) Accum Precip 10-min Precip SL Press(mb)
6/27 5:00pm 242 9 G 18 84° 19% - - 38° 89.5° 74.8° - - 1008.0
6/27 4:50pm 254 9 G 15 85° 19% - - 38° 89.5° 74.8° - - 1008.0
6/27 4:40pm 265 8 G 17 85° 18% - - 36° 89.5° 74.8° - - 1008.0
6/27 4:30pm 273 9 G 16 85° 17% - - 36° 89.5° 74.8° - - 1008.0
6/27 4:20pm 256 9 G 16 84° 18% - - 36° 89.5° 74.8° - - 1009.0
6/27 4:10pm 255 11 G 17 84° 18% - - 36° 89.5° 74.8° - - 1009.0
6/27 4:00pm 260 10 G 18 85° 18% - - 37° 89.5° 74.8° - - 1009.0
6/27 3:50pm 247 10 G 19 85° 19% - - 39° 89.5° 74.8° - - 1009.0
6/27 3:40pm 262 11 G 18 85° 19% - - 38° 89.5° 74.8° - - 1009.0
6/27 3:30pm 268 10 G 18 86° 16% - - 35° 89.5° 74.8° - - 1009.0
6/27 3:20pm 268 12 G 19 86° 17% - - 36° 89.5° 74.8° - - 1009.0
6/27 3:10pm 263 11 G 20 86° 19% - - 38° 89.5° 74.8° - - 1009.0
6/27 3:00pm 250 11 G 17 85° 21% - - 41° 89.5° 74.8° - - 1009.0
6/27 2:50pm 267 10 G 20 87° 20% - - 41° 89.5° 74.8° - - 1009.0
6/27 2:40pm 243 12 G 25 85° 22% - - 42° 89.5° 74.8° - - 1009.0
6/27 2:30pm 242 13 G 26 86° 23% - - 44° 89.5° 74.8° - - 1009.0
6/27 2:20pm 236 11 G 20 86° 22% - - 43° 89.5° 74.8° - - 1009.0
6/27 2:10pm 244 11 G 18 86° 20% - - 40° 89.5° 74.8° - - 1009.0
6/27 2:00pm 249 11 G 22 87° 17% - - 36° 89.5° 74.8° - - 1009.0
6/27 1:50pm 261 12 G 20 88° 15% - - 34° 89.5° 74.8° - - 1009.0
6/27 1:40pm 248 11 G 21 87° 14% - - 33° 89° 74.8° - - 1009.0
6/27 1:30pm 264 11 G 20 88° 14% - - 33° 89° 74.8° - - 1009.0
6/27 1:20pm 303 8 G 17 87° 15% - - 33° 88° 74.8° - - 1009.0
6/27 1:10pm 313 9 G 16 86° 15% - - 33° 87.6° 74.8° - - 1009.0
6/27 1:00pm 309 9 G 14 86° 14% - - 31° 87.1° 74.8° - - 1009.0
6/27 12:50pm 311 10 G 17 86° 13% - - 30° 87.1° 74.8° - - 1009.0
6/27 12:40pm 310 8 G 14 86° 12% - - 28° 87° 74.8° - - 1009.0
6/27 12:30pm 321 10 G 16 86° 12% - - 27° 87° 74.8° - - 1010.0
6/27 12:20pm 306 8 G 14 86° 12% - - 28° 87° 74.8° - - 1010.0
6/27 12:10pm 325 9 G 15 86° 12% - - 28° 87° 74.8° - - 1010.0
6/27 12:00pm 327 9 G 15 86° 12% - - 28° 86.6° 74.8° - - 1010.0
6/27 11:50am 327 9 G 14 85° 12% - - 27° 86.2° 74.8° - - 1010.0
6/27 11:40am 336 8 G 15 85° 12% - - 27° 86.2° 74.8° - - 1010.0
6/27 11:30am 322 9 G 13 85° 12% - - 26° 85.8° 74.8° - - 1010.0
6/27 11:20am 320 9 G 13 84° 12% - - 26° 85.5° 74.8° - - 1010.0
6/27 11:10am 324 7 G 12 84° 12% - - 27° 85.4° 74.8° - - 1010.0
6/27 11:00am 316 8 G 13 83° 12% - - 25° 85.1° 74.8° - - 1010.0
6/27 10:50am 298 7 G 15 84° 13% - - 28° 85.1° 74.8° - - 1010.0
6/27 10:40am 320 5 G 10 83° 13% - - 27° 84.1° 74.8° - - 1010.0
6/27 10:30am 298 6 G 11 83° 13% - - 27° 84.1° 74.8° - - 1010.0
6/27 10:20am 317 7 G 12 82° 12% - - 25° 83.2° 74.8° - - 1011.0
6/27 10:10am 316 7 G 12 82° 12% - - 24° 83.1° 74.8° - - 1011.0
6/27 10:00am 307 6 G 11 82° 12% - - 25° 82.9° 74.8° - - 1011.0
6/27 9:50am 291 6 G 11 82° 12% - - 25° 82.9° 74.8° - - 1011.0
6/27 9:40am 301 7 G 11 82° 12% - - 24° 82.9° 74.8° - - 1011.0
6/27 9:30am 318 5 G 9 82° 13% - - 25° 82.9° 74.8° - - 1011.0
6/27 9:20am 305 5 G 9 82° 12% - - 24° 82.9° 74.8° - - 1011.0
6/27 9:10am 311 5 G 8 82° 12% - - 24° 82.9° 74.8° - - 1011.0
6/27 9:00am 349 5 G 9 82° 12% - - 25° 82.9° 74.8° - - 1011.0
6/27 8:50am 342 3 G 6 82° 11% - - 21° 82.7° 74.8° - - 1011.0
6/27 8:40am 25 2 G 6 81° 10% - - 19° 82.3° 74.8° - - 1011.0
6/27 8:30am 55 3 G 7 81° 12% - - 22° 81.1° 74.8° - - 1011.0
6/27 8:20am 50 4 G 9 80° 14% - - 26° 80.6° 74.8° - - 1011.0
6/27 8:10am 54 3 G 7 79° 12% - - 23° 80.6° 74.8° - - 1011.0
6/27 8:00am 83 6 G 10 78° 13% - - 24° 79.7° 74.8° - - 1011.0
6/27 7:50am 87 8 G 11 77° 14% - - 23° 79.7° 74.8° - - 1011.0
6/27 7:40am 74 6 G 10 77° 13% - - 22° 79.7° 74.8° - - 1011.0
6/27 7:30am 82 6 G 10 78° 12% - - 21° 79.7° 74.8° - - 1011.0
6/27 7:20am 50 4 G 7 78° 11% - - 19° 79.7° 74.8° - - 1011.0
6/27 7:10am 87 5 G 8 76° 12% - - 21° 79.3° 74.8° - - 1012.0
6/27 7:00am 72 5 G 8 77° 11% - - 18° 79.3° 74.8° - - 1011.0
6/27 6:50am 83 5 G 9 77° 10% - - 17° 79.3° 74.8° - - 1011.0
6/27 6:40am 67 6 G 10 77° 11% - - 18° 79.3° 74.8° - - 1011.0
6/27 6:30am 81 6 G 10 77° 11% - - 19° 79.3° 74.8° - - 1011.0
6/27 6:20am 79 6 G 12 77° 11% - - 19° 79.3° 74.8° - - 1011.0
6/27 6:10am 68 6 G 12 77° 12% - - 19° 79.3° 74.8° - - 1011.0
6/27 6:00am 119 7 G 14 77° 11% - - 19° 79.3° 74.9° - - 1011.0
6/27 5:50am 94 5 G 11 76° 12% - - 20° 79.3° 74.9° - - 1011.0
6/27 5:40am 78 6 G 11 76° 12% - - 20° 79.3° 75.2° - - 1011.0
6/27 5:30am 96 4 G 9 77° 12% - - 21° 79.3° 75.3° - - 1011.0
6/27 5:20am 22 3 G 6 77° 12% - - 20° 79.3° 75.3° - - 1011.0
6/27 5:10am 85 2 G 6 77° 12% - - 20° 79.3° 75.3° - - 1011.0
6/27 5:00am 111 3 G 5 77° 12% - - 20° 79.3° 75.3° - - 1011.0
6/27 4:50am 118 2 G 6 78° 12% - - 21° 79.3° 75.3° - - 1011.0
6/27 4:40am 120 4 G 6 78° 12% - - 21° 79.3° 75.3° - - 1011.0
6/27 4:30am 138 2 G 6 78° 12% - - 21° 79.3° 75.3° - - 1011.0
6/27 4:20am 107 5 G 9 77° 12% - - 21° 79.3° 75.3° - - 1011.0
6/27 4:10am 107 4 G 8 78° 12% - - 21° 79.3° 75.3° - - 1011.0
6/27 4:00am 77 4 G 7 78° 12% - - 21° 79.3° 75.3° - - 1011.0
6/27 3:50am 69 3 G 7 77° 12% - - 22° 79.3° 75.3° - - 1011.0
6/27 3:40am 85 4 G 8 78° 12% - - 21° 79.3° 75.3° - - 1011.0
6/27 3:30am 84 5 G 8 78° 12% - - 21° 79.3° 75.3° - - 1011.0
6/27 3:20am 98 4 G 8 78° 12% - - 22° 79.3° 75.3° - - 1011.0
6/27 3:10am 90 7 G 10 78° 12% - - 22° 79.3° 75.3° - - 1011.0
6/27 3:00am 83 6 G 10 77° 13% - - 22° 79.3° 75.3° - - 1011.0
6/27 2:50am 87 6 G 11 78° 13% - - 22° 79.3° 75.6° - - 1011.0
6/27 2:40am 80 5 G 8 77° 13% - - 22° 79.3° 75.6° - - 1011.0
6/27 2:30am 94 6 G 10 77° 13% - - 22° 79.3° 75.9° - - 1011.0
6/27 2:20am 91 5 G 9 77° 13% - - 22° 79.3° 75.9° - - 1011.0
6/27 2:10am 108 5 G 7 78° 12% - - 22° 79.3° 75.9° - - 1011.0
6/27 2:00am 120 3 G 8 77° 13% - - 22° 79.3° 75.9° - - 1011.0
6/27 1:50am 75 3 G 7 78° 12% - - 22° 79.3° 75.9° - - 1011.0
6/27 1:40am 90 3 G 6 78° 12% - - 22° 79.3° 75.9° - - 1011.0
6/27 1:30am 52 3 G 10 77° 12% - - 22° 79° 75.9° - - 1011.0
6/27 1:20am 87 5 G 7 77° 12% - - 21° 78.8° 75.9° - - 1012.0
6/27 1:10am 80 3 G 6 77° 12% - - 20° 78.8° 75.9° - - 1012.0
6/27 1:00am 62 4 G 8 77° 11% - - 18° 78.8° 75.9° - - 1012.0
6/27 12:50am 58 6 G 11 77° 10% - - 16° 78.8° 75.9° - - 1012.0
6/27 12:40am 22 3 G 7 77° 9% - - 15° 78.8° 76.4° - - 1012.0
6/27 12:30am 353 4 G 7 77° 10% - - 16° 78.8° 76.4° - - 1012.0
6/27 12:20am 332 4 G 8 78° 9% - - 16° 78.8° 77.3° - - 1012.0
6/27 12:10am 338 4 G 8 78° 10% - - 17° 78.8° 77.7° - - 1012.0
6/27 12:00am 343 5 G 8 79° 10% - - 17° 93° 77.7° - - 1012.0
6/26 11:50pm 334 5 G 8 79° 9% - - 16° 93° 77.7° - - 1012.0
6/26 11:40pm 346 4 G 7 80° 10% - - 17° 93° 77.7° - - 1012.0
6/26 11:30pm 12 4 G 6 79° 10% - - 18° 93° 77.7° - - 1012.0
6/26 11:20pm 41 4 G 6 80° 10% - - 18° 93° 77.7° - - 1012.0
6/26 11:10pm 33 3 G 9 80° 9% - - 17° 93° 77.7° - - 1012.0
6/26 11:00pm 31 5 G 7 80° 10% - - 18° 93° 77.7° - - 1012.0
6/26 10:50pm 39 4 G 9 79° 10% - - 18° 93° 77.7° - - 1012.0
6/26 10:40pm 68 5 G 9 80° 10% - - 18° 93° 77.7° - - 1012.0
6/26 10:30pm 65 4 G 8 80° 10% - - 18° 93° 77.7° - - 1012.0
6/26 10:20pm 78 3 G 7 80° 10% - - 19° 93° 77.7° - - 1012.0
6/26 10:10pm 82 5 G 9 80° 10% - - 19° 93° 77.7° - - 1012.0
6/26 10:00pm 83 5 G 9 80° 10% - - 19° 93° 77.7° - - 1012.0
6/26 9:50pm 94 5 G 8 80° 10% - - 19° 93° 77.7° - - 1012.0
6/26 9:40pm 86 5 G 8 79° 10% - - 19° 93° 77.7° - - 1012.0
6/26 9:30pm 98 7 G 9 79° 11% - - 19° 93° 77.7° - - 1012.0
6/26 9:20pm 102 7 G 9 78° 12% - - 21° 93° 77.7° - - 1012.0
6/26 9:10pm 103 5 G 8 79° 12% - - 22° 93° 77.8° - - 1012.0
6/26 9:00pm 88 2 G 5 79° 12% - - 23° 93° 79° - - 1012.0
6/26 8:50pm 314 1 G 4 80° 12% - - 23° 93° 79.4° - - 1012.0
6/26 8:40pm 157 1 G 4 80° 12% - - 24° 93° 79.4° - - 1012.0
6/26 8:30pm 192 1 G 3 80° 12% - - 24° 93° 79.5° - - 1012.0
6/26 8:20pm 268 3 G 5 81° 12% - - 24° 93° 79.8° - - 1012.0
6/26 8:10pm 277 4 G 7 81° 11% - - 23° 93° 80.7° - - 1011.0
6/26 8:00pm 262 3 G 6 82° 12% - - 23° 93° 81° - - 1011.0
6/26 7:50pm 259 3 G 5 82° 12% - - 24° 93° 81.3° - - 1011.0
6/26 7:40pm 257 4 G 7 82° 12% - - 24° 93° 81.9° - - 1011.0
6/26 7:30pm 258 6 G 10 83° 12% - - 24° 93° 82.2° - - 1011.0
6/26 7:20pm 260 7 G 10 83° 11% - - 24° 93° 82.7° - - 1011.0
6/26 7:10pm 276 8 G 12 84° 11% - - 24° 93° 82.8° - - 1011.0
6/26 7:00pm 304 7 G 10 84° 14% - - 31° 93° 82.8° - - 1011.0
6/26 6:50pm 303 8 G 12 85° 15% - - 32° 93° 82.8° - - 1011.0
6/26 6:40pm 307 8 G 12 86° 16% - - 34° 93° 82.8° - - 1011.0
6/26 6:30pm 304 8 G 11 86° 16% - - 34° 93° 82.8° - - 1010.0
6/26 6:20pm 308 8 G 13 87° 14% - - 33° 93° 82.8° - - 1010.0
6/26 6:10pm 305 9 G 14 87° 12% - - 29° 93° 82.8° - - 1010.0
6/26 6:00pm 308 9 G 16 88° 11% - - 26° 93° 82.8° - - 1010.0
6/26 5:50pm 294 11 G 16 88° 10% - - 24° 93° 82.8° - - 1010.0
6/26 5:40pm 294 11 G 17 88° 10% - - 25° 93° 82.8° - - 1010.0
6/26 5:30pm 294 12 G 19 88° 11% - - 27° 93° 82.8° - - 1010.0
6/26 5:20pm 288 12 G 20 89° 11% - - 27° 93° 82.8° - - 1010.0
6/26 5:10pm 287 13 G 19 89° 11% - - 27° 93° 82.8° - - 1010.0
6/26 5:00pm 295 13 G 21 89° 11% - - 27° 93° 82.8° - - 1010.0
6/26 4:50pm 298 13 G 19 89° 11% - - 28° 93° 82.8° - - 1010.0
6/26 4:40pm 292 13 G 22 90° 11% - - 28° 93° 82.8° - - 1010.0
6/26 4:30pm 297 13 G 17 90° 11% - - 29° 93° 82.8° - - 1010.0
6/26 4:20pm 293 13 G 19 90° 11% - - 30° 93° 82.8° - - 1010.0
6/26 4:10pm 287 12 G 22 90° 12% - - 30° 93° 82.8° - - 1010.0
6/26 4:00pm 292 13 G 20 90° 11% - - 29° 93° 82.8° - - 1010.0
6/26 3:50pm 293 13 G 23 90° 11% - - 28° 93° 82.8° - - 1010.0
6/26 3:40pm 291 14 G 23 91° 11% - - 28° 93° 82.8° - - 1010.0
6/26 3:30pm 289 14 G 20 91° 10% - - 28° 93° 82.8° - - 1010.0
6/26 3:20pm 284 14 G 20 91° 10% - - 28° 93° 82.8° - - 1010.0
6/26 3:10pm 288 13 G 21 91° 11% - - 28° 93° 82.8° - - 1011.0
6/26 3:00pm 292 13 G 22 91° 11% - - 29° 93° 82.8° - - 1011.0
6/26 2:50pm 300 12 G 19 91° 11% - - 29° 93° 82.8° - - 1011.0
6/26 2:40pm 306 11 G 17 91° 11% - - 29° 93° 82.8° - - 1011.0
6/26 2:30pm 293 13 G 20 91° 11% - - 28° 93° 82.8° - - 1011.0
6/26 2:20pm 296 13 G 23 91° 11% - - 28° 93° 82.8° - - 1011.0
6/26 2:10pm 301 12 G 18 91° 11% - - 29° 93° 82.8° - - 1011.0
6/26 2:00pm 325 12 G 19 92° 11% - - 29° 93° 82.8° - - 1011.0
6/26 1:50pm 300 11 G 20 91° 11% - - 29° 93° 82.8° - - 1011.0
6/26 1:40pm 293 12 G 17 91° 11% - - 28° 93° 82.8° - - 1011.0
6/26 1:30pm 295 13 G 19 91° 11% - - 28° 93° 82.8° - - 1011.0
6/26 1:20pm 285 12 G 19 92° 10% - - 28° 93° 82.8° - - 1011.0
6/26 1:10pm 297 12 G 19 91° 11% - - 28° 93° 82.8° - - 1011.0
6/26 1:00pm 306 9 G 18 91° 11% - - 29° 93° 82.8° - - 1011.0
6/26 12:50pm 288 11 G 20 91° 11% - - 28° 93° 82.8° - - 1011.0
6/26 12:40pm 292 11 G 17 91° 11% - - 29° 93° 82.8° - - 1011.0
6/26 12:30pm 306 10 G 16 92° 11% - - 30° 93° 82.8° - - 1011.0
6/26 12:20pm 293 8 G 19 91° 11% - - 29° 93° 82.8° - - 1011.0
6/26 12:10pm 293 10 G 16 91° 11% - - 28° 92° 82.8° - - 1011.0
6/26 12:00pm 293 11 G 18 91° 11% - - 29° 92° 82.8° - - 1011.0
6/26 11:50am 297 10 G 17 91° 11% - - 30° 92° 82.8° - - 1011.0
6/26 11:40am 309 7 G 14 91° 12% - - 32° 92° 82.8° - - 1011.0
6/26 11:30am 311 7 G 13 91° 13% - - 33° 91.7° 82.8° - - 1011.0
6/26 11:20am 315 7 G 10 91° 13% - - 34° 91.7° 82.8° - - 1011.0
6/26 11:10am 318 6 G 15 90° 14% - - 35° 91.2° 82.8° - - 1011.0
6/26 11:00am 328 8 G 13 90° 14% - - 34° 90.8° 82.8° - - 1011.0
6/26 10:50am 314 7 G 15 90° 14% - - 34° 90.8° 82.8° - - 1011.0
6/26 10:40am 301 7 G 12 89° 14% - - 34° 90.8° 82.8° - - 1011.0
6/26 10:30am 324 8 G 13 90° 13% - - 33° 90.8° 82.8° - - 1011.0
6/26 10:20am 323 8 G 15 89° 13% - - 32° 90.3° 82.8° - - 1011.0
6/26 10:10am 315 7 G 12 89° 13% - - 33° 89.8° 82.8° - - 1011.0
6/26 10:00am 313 7 G 11 89° 14% - - 33° 89.8° 82.8° - - 1011.0
6/26 9:50am 323 5 G 8 89° 13% - - 33° 89.8° 82.8° - - 1011.0
6/26 9:40am 339 5 G 11 89° 14% - - 34° 89.7° 82.8° - - 1011.0
6/26 9:30am 325 5 G 7 89° 15% - - 35° 89.7° 82.8° - - 1011.0
6/26 9:20am 320 4 G 7 89° 16% - - 37° 89.7° 82.8° - - 1011.0
6/26 9:10am 342 4 G 6 88° 15% - - 35° 89° 82.8° - - 1011.0
6/26 9:00am 20 6 G 9 88° 14% - - 33° 88.5° 82.8° - - 1011.0
6/26 8:50am 31 6 G 9 88° 14% - - 32° 88.3° 82.8° - - 1011.0
6/26 8:40am 47 6 G 9 88° 13% - - 30° 88.2° 82.8° - - 1011.0
6/26 8:30am 50 7 G 9 87° 13% - - 31° 87.7° 82.8° - - 1011.0
6/26 8:20am 52 8 G 11 87° 13% - - 30° 87.5° 82.8° - - 1011.0
6/26 8:10am 53 8 G 11 87° 13% - - 30° 87.3° 82.8° - - 1011.0
6/26 8:00am 53 9 G 12 87° 13% - - 29° 87.1° 82.8° - - 1011.0
6/26 7:50am 51 9 G 12 86° 13% - - 29° 87° 82.8° - - 1011.0
6/26 7:40am 56 9 G 11 86° 13% - - 29° 87° 82.8° - - 1011.0
6/26 7:30am 57 9 G 12 85° 13% - - 29° 87° 82.8° - - 1011.0
6/26 7:20am 55 9 G 12 85° 13% - - 28° 87° 82.8° - - 1011.0
6/26 7:10am 55 9 G 12 85° 13% - - 29° 87° 82.8° - - 1011.0
6/26 7:00am 55 9 G 11 85° 13% - - 28° 87° 82.8° - - 1011.0
6/26 6:50am 60 8 G 12 84° 13% - - 28° 87° 82.8° - - 1011.0
6/26 6:40am 60 8 G 11 84° 13% - - 28° 87° 82.8° - - 1011.0
6/26 6:30am 56 9 G 11 85° 13% - - 28° 87° 82.8° - - 1011.0
6/26 6:20am 56 9 G 12 85° 13% - - 28° 87° 82.8° - - 1011.0
6/26 6:10am 51 10 G 11 85° 13% - - 29° 87° 82.8° - - 1011.0
6/26 6:00am 50 10 G 14 85° 13% - - 29° 87° 82.8° - - 1011.0